Malaspina — WI6803 — position and weather

sailwx.info

Track history (hours):
 
Tides and Currents Weather Stations Pressure Air Temp Water Temp Dewpoint Dewpoint Depression Visibility Wind Speed Wind Dir Waves Ship Positions

Malaspina

Owner: ALASKA, STATE OF, ANCHORAGE, AK. More information available from US FCC via Universal Licensing System and Coast Guard Vessel Documentation Center.

Last reported at 2019-Sep-21 05:48 UTC. Time now 2019-Sep-21 11:03 UTC.
Position N 55°10' W 131°12'.

Type: Passenger vessel. MMSI: 367143000.

Date/timePositionNaut miles runAvg speedWind from/ knotsBaromVisibWave heightAir tempDewpointWater temp
2019-Sep-21 05:48N 55°10' W 131°12'2516.7
2019-Sep-21 04:19N 54°47' W 130°58'517.1
2019-Sep-21 04:00N 54°43' W 130°52'917.0
2019-Sep-21 03:29N 54°36' W 130°42'816.5
2019-Sep-21 03:00N 54°29' W 130°38'917.3
2019-Sep-21 02:30N 54°20' W 130°35'817.0
2019-Sep-21 02:00N 54°14' W 130°26'4 7.9
2019-Sep-21 01:30N 54°17' W 130°22'1 1.8
2019-Sep-21 01:00N 54°18' W 130°21'0 0.0
2019-Sep-21 00:30N 54°18' W 130°21'0 0.0
2019-Sep-21 00:00N 54°18' W 130°21'0 0.0
2019-Sep-20 23:30N 54°18' W 130°21'0 0.0
2019-Sep-20 22:55N 54°18' W 130°21'0 0.0
2019-Sep-20 22:28N 54°18' W 130°21'0 0.0
2019-Sep-20 21:52N 54°18' W 130°21'0 0.0
2019-Sep-20 21:30N 54°18' W 130°21'1 1.6
2019-Sep-20 21:00N 54°17' W 130°22'4 8.2
2019-Sep-20 20:30N 54°13' W 130°25'815.3
2019-Sep-20 20:00N 54°18' W 130°35'815.5
2019-Sep-20 19:30N 54°26' W 130°38'816.0
2019-Sep-20 19:00N 54°34' W 130°40'815.9
2019-Sep-20 18:29N 54°41' W 130°48'815.8
2019-Sep-20 18:00N 54°46' W 130°57'  
2019-Sep-17 11:21N 54°47' W 130°57'617.5
2019-Sep-17 11:00N 54°42' W 130°50'917.8
2019-Sep-17 10:30N 54°35' W 130°40'917.2
2019-Sep-17 10:00N 54°27' W 130°37'917.3
2019-Sep-17 09:30N 54°18' W 130°34'816.8
2019-Sep-17 09:00N 54°13' W 130°22'4 8.7
2019-Sep-17 08:31N 54°17' W 130°22'0 0.9
2019-Sep-17 07:59N 54°18' W 130°21'0 0.0
2019-Sep-17 07:26N 54°18' W 130°21'0 0.0
2019-Sep-17 06:59N 54°18' W 130°21'0 0.0
2019-Sep-17 06:29N 54°18' W 130°21'0 0.0
2019-Sep-17 05:56N 54°18' W 130°21'0 0.0
2019-Sep-17 05:23N 54°18' W 130°21'0 0.0
2019-Sep-17 04:59N 54°18' W 130°21'0 0.0
2019-Sep-17 04:29N 54°18' W 130°21'0 0.6
2019-Sep-17 04:00N 54°18' W 130°22'5 9.1
2019-Sep-17 03:30N 54°13' W 130°22'714.5
2019-Sep-17 03:00N 54°17' W 130°32'714.8
2019-Sep-17 02:30N 54°24' W 130°37'816.1
2019-Sep-17 02:00N 54°32' W 130°39'815.5
2019-Sep-17 01:30N 54°39' W 130°45'815.8
2019-Sep-17 01:00N 54°45' W 130°54'  
2019-Sep-14 04:50N 54°37' W 130°43'614.6
2019-Sep-14 04:27N 54°32' W 130°39'715.9
2019-Sep-14 04:00N 54°25' W 130°37'815.9
2019-Sep-14 03:30N 54°17' W 130°32'714.7
2019-Sep-14 03:00N 54°14' W 130°21'4 7.9
2019-Sep-14 02:28N 54°18' W 130°21'0 0.0
2019-Sep-14 01:58N 54°18' W 130°21'0 0.0
2019-Sep-14 01:28N 54°18' W 130°21'0 0.0
2019-Sep-14 00:58N 54°18' W 130°21'0 0.0
2019-Sep-14 00:28N 54°18' W 130°21'0 0.0
2019-Sep-13 23:58N 54°18' W 130°21'0 0.0
2019-Sep-13 23:25N 54°18' W 130°21'0 0.0
2019-Sep-13 22:55N 54°18' W 130°21'0 0.0
2019-Sep-13 22:30N 54°18' W 130°21'3 6.0
2019-Sep-13 22:00N 54°15' W 130°21'5 9.8
2019-Sep-13 21:30N 54°16' W 130°29'714.6
2019-Sep-13 21:00N 54°22' W 130°36'815.7
2019-Sep-13 20:31N 54°29' W 130°38'1315.4
2019-Sep-13 19:41N 54°41' W 130°49'315.9
2019-Sep-13 19:29N 54°43' W 130°52'  
Track history (hours):
 
Tides and Currents Weather Stations Pressure Air Temp Water Temp Dewpoint Dewpoint Depression Visibility Wind Speed Wind Dir Waves Ship Positions

Malaspina

Owner: ALASKA, STATE OF, ANCHORAGE, AK. More information available from US FCC via Universal Licensing System and Coast Guard Vessel Documentation Center.

Last reported at 2019-Sep-21 05:48 UTC. Time now 2019-Sep-21 11:03 UTC.
Position N 55°10' W 131°12'.

Type: Passenger vessel. MMSI: 367143000.

Date/timePositionNaut miles runAvg speedWind from/ knotsBaromVisibWave heightAir tempDewpointWater temp
2019-Sep-21 05:48N 55°10' W 131°12'2516.7
2019-Sep-21 04:19N 54°47' W 130°58'517.1
2019-Sep-21 04:00N 54°43' W 130°52'917.0
2019-Sep-21 03:29N 54°36' W 130°42'816.5
2019-Sep-21 03:00N 54°29' W 130°38'917.3
2019-Sep-21 02:30N 54°20' W 130°35'817.0
2019-Sep-21 02:00N 54°14' W 130°26'4 7.9
2019-Sep-21 01:30N 54°17' W 130°22'1 1.8
2019-Sep-21 01:00N 54°18' W 130°21'0 0.0
2019-Sep-21 00:30N 54°18' W 130°21'0 0.0
2019-Sep-21 00:00N 54°18' W 130°21'0 0.0
2019-Sep-20 23:30N 54°18' W 130°21'0 0.0
2019-Sep-20 22:55N 54°18' W 130°21'0 0.0
2019-Sep-20 22:28N 54°18' W 130°21'0 0.0
2019-Sep-20 21:52N 54°18' W 130°21'0 0.0
2019-Sep-20 21:30N 54°18' W 130°21'1 1.6
2019-Sep-20 21:00N 54°17' W 130°22'4 8.2
2019-Sep-20 20:30N 54°13' W 130°25'815.3
2019-Sep-20 20:00N 54°18' W 130°35'815.5
2019-Sep-20 19:30N 54°26' W 130°38'816.0
2019-Sep-20 19:00N 54°34' W 130°40'815.9
2019-Sep-20 18:29N 54°41' W 130°48'815.8
2019-Sep-20 18:00N 54°46' W 130°57'  
2019-Sep-17 11:21N 54°47' W 130°57'617.5
2019-Sep-17 11:00N 54°42' W 130°50'917.8
2019-Sep-17 10:30N 54°35' W 130°40'917.2
2019-Sep-17 10:00N 54°27' W 130°37'917.3
2019-Sep-17 09:30N 54°18' W 130°34'816.8
2019-Sep-17 09:00N 54°13' W 130°22'4 8.7
2019-Sep-17 08:31N 54°17' W 130°22'0 0.9
2019-Sep-17 07:59N 54°18' W 130°21'0 0.0
2019-Sep-17 07:26N 54°18' W 130°21'0 0.0
2019-Sep-17 06:59N 54°18' W 130°21'0 0.0
2019-Sep-17 06:29N 54°18' W 130°21'0 0.0
2019-Sep-17 05:56N 54°18' W 130°21'0 0.0
2019-Sep-17 05:23N 54°18' W 130°21'0 0.0
2019-Sep-17 04:59N 54°18' W 130°21'0 0.0
2019-Sep-17 04:29N 54°18' W 130°21'0 0.6
2019-Sep-17 04:00N 54°18' W 130°22'5 9.1
2019-Sep-17 03:30N 54°13' W 130°22'714.5
2019-Sep-17 03:00N 54°17' W 130°32'714.8
2019-Sep-17 02:30N 54°24' W 130°37'816.1
2019-Sep-17 02:00N 54°32' W 130°39'815.5
2019-Sep-17 01:30N 54°39' W 130°45'815.8
2019-Sep-17 01:00N 54°45' W 130°54'  
2019-Sep-14 04:50N 54°37' W 130°43'614.6
2019-Sep-14 04:27N 54°32' W 130°39'715.9
2019-Sep-14 04:00N 54°25' W 130°37'815.9
2019-Sep-14 03:30N 54°17' W 130°32'714.7
2019-Sep-14 03:00N 54°14' W 130°21'4 7.9
2019-Sep-14 02:28N 54°18' W 130°21'0 0.0
2019-Sep-14 01:58N 54°18' W 130°21'0 0.0
2019-Sep-14 01:28N 54°18' W 130°21'0 0.0
2019-Sep-14 00:58N 54°18' W 130°21'0 0.0
2019-Sep-14 00:28N 54°18' W 130°21'0 0.0
2019-Sep-13 23:58N 54°18' W 130°21'0 0.0
2019-Sep-13 23:25N 54°18' W 130°21'0 0.0
2019-Sep-13 22:55N 54°18' W 130°21'0 0.0
2019-Sep-13 22:30N 54°18' W 130°21'3 6.0
2019-Sep-13 22:00N 54°15' W 130°21'5 9.8
2019-Sep-13 21:30N 54°16' W 130°29'714.6
2019-Sep-13 21:00N 54°22' W 130°36'815.7
2019-Sep-13 20:31N 54°29' W 130°38'1315.4
2019-Sep-13 19:41N 54°41' W 130°49'315.9
2019-Sep-13 19:29N 54°43' W 130°52'  

Dump ship's entire track history